createdAt,value
2022-12-19T00:01:37.843Z,101250.02
2022-12-19T00:04:11.078Z,101247.58
2022-12-19T00:06:40.900Z,101249.75
2022-12-19T00:09:15.064Z,101238.23
2022-12-19T00:11:44.020Z,101236.64
2022-12-19T00:14:12.104Z,101241.29
2022-12-19T00:16:40.285Z,101238.92
2022-12-19T00:19:11.722Z,101240.06
2022-12-19T00:21:39.604Z,101241.15
2022-12-19T00:24:21.145Z,101239.14
2022-12-19T00:26:50.918Z,101236.66
2022-12-19T00:29:18.897Z,101237.12
2022-12-19T00:31:47.158Z,101236.23
2022-12-19T00:34:16.683Z,101234.73
2022-12-19T00:36:45.374Z,101238.98
2022-12-19T00:39:14.307Z,101234.70
2022-12-19T00:41:43.312Z,101229.66
2022-12-19T00:44:16.662Z,101226.67
2022-12-19T00:46:46.475Z,101225.52
2022-12-19T00:49:22.786Z,101223.09
2022-12-19T00:51:51.487Z,101219.86
2022-12-19T00:54:19.748Z,101220.34
2022-12-19T00:56:48.208Z,101221.74
2022-12-19T00:59:17.094Z,101226.80
2022-12-19T01:01:50.502Z,101227.66
2022-12-19T01:04:28.121Z,101226.70
2022-12-19T01:07:01.813Z,101222.29
2022-12-19T01:09:35.454Z,101215.77
2022-12-19T01:12:25.067Z,101216.13
2022-12-19T01:14:59.487Z,101216.39
2022-12-19T01:17:44.003Z,101203.89
2022-12-19T01:20:21.416Z,101196.90
2022-12-19T01:23:00.626Z,101194.45
2022-12-19T01:25:30.365Z,101194.45
2022-12-19T01:27:58.415Z,101189.63
2022-12-19T01:30:29.151Z,101189.04
2022-12-19T01:33:03.838Z,101187.35
2022-12-19T01:35:31.951Z,101186.91
2022-12-19T01:38:08.590Z,101184.73
2022-12-19T01:40:38.887Z,101181.63
2022-12-19T01:43:13.775Z,101182.69
2022-12-19T01:45:45.875Z,101181.39
2022-12-19T01:48:26.828Z,101175.36
2022-12-19T01:51:05.043Z,101172.92
2022-12-19T01:53:59.287Z,101168.28
2022-12-19T01:56:36.062Z,101165.13
2022-12-19T01:59:10.364Z,101164.20
2022-12-19T02:01:51.267Z,101160.27
2022-12-19T02:04:22.252Z,101161.00
2022-12-19T02:06:53.043Z,101160.41
2022-12-19T02:09:22.427Z,101154.02
2022-12-19T02:11:51.674Z,101154.15
2022-12-19T02:14:20.848Z,101150.85
2022-12-19T02:17:02.871Z,101149.97
2022-12-19T02:19:42.747Z,101144.16
2022-12-19T02:22:47.484Z,101142.58
2022-12-19T02:25:28.860Z,101141.40
2022-12-19T02:28:12.180Z,101146.19
2022-12-19T02:31:11.333Z,101143.72
2022-12-19T02:34:11.956Z,101140.64
2022-12-19T02:36:53.862Z,101140.38
2022-12-19T02:39:47.545Z,101147.08
2022-12-19T02:42:31.799Z,101153.06
2022-12-19T02:45:03.332Z,101152.65
2022-12-19T02:47:35.674Z,101152.26
2022-12-19T02:50:05.718Z,101153.54
2022-12-19T02:52:33.774Z,101152.27
2022-12-19T02:55:08.124Z,101154.25
2022-12-19T02:57:41.972Z,101158.96
2022-12-19T03:00:22.621Z,101164.05
2022-12-19T03:03:26.134Z,101166.16
2022-12-19T03:06:23.149Z,101164.59
2022-12-19T03:09:27.489Z,101161.98
2022-12-19T03:12:11.621Z,101165.39
2022-12-19T03:14:45.481Z,101160.39
2022-12-19T03:17:14.416Z,101160.83
2022-12-19T03:19:42.343Z,101160.23
2022-12-19T03:22:10.394Z,101161.86
2022-12-19T03:24:38.421Z,101161.59
2022-12-19T03:27:17.586Z,101161.16
2022-12-19T03:30:09.684Z,101159.15
2022-12-19T03:32:42.802Z,101156.84
2022-12-19T03:35:16.660Z,101150.67
2022-12-19T03:37:48.654Z,101146.64
2022-12-19T03:40:22.063Z,101144.20
2022-12-19T03:43:12.854Z,101138.73
2022-12-19T03:45:51.801Z,101132.16
2022-12-19T03:48:48.489Z,101123.18
2022-12-19T03:51:31.762Z,101120.17
2022-12-19T03:54:14.264Z,101112.14
2022-12-19T03:56:48.160Z,101112.31
2022-12-19T03:59:42.322Z,101111.09
2022-12-19T04:02:14.357Z,101113.02
2022-12-19T04:04:48.025Z,101116.35
2022-12-19T04:07:17.516Z,101119.52
2022-12-19T04:09:48.243Z,101113.65
2022-12-19T04:12:21.509Z,101108.55
2022-12-19T04:14:51.040Z,101107.90
2022-12-19T04:17:35.216Z,101102.91
2022-12-19T04:20:26.236Z,101092.33
2022-12-19T04:22:55.373Z,101097.06
2022-12-19T04:25:29.717Z,101098.69
2022-12-19T04:28:07.418Z,101093.26
2022-12-19T04:30:38.227Z,101087.20
2022-12-19T04:33:07.850Z,101086.77
2022-12-19T04:35:38.155Z,101088.48
2022-12-19T04:38:07.418Z,101086.25
2022-12-19T04:40:41.230Z,101086.39
2022-12-19T04:43:10.377Z,101087.97
2022-12-19T04:45:42.837Z,101087.05
2022-12-19T04:48:11.096Z,101085.25
2022-12-19T04:50:39.005Z,101083.45
2022-12-19T04:53:07.120Z,101082.66
2022-12-19T04:55:36.270Z,101090.97
2022-12-19T04:58:06.442Z,101095.85
2022-12-19T05:00:34.656Z,101096.85
2022-12-19T05:03:03.019Z,101103.16
2022-12-19T05:05:32.696Z,101098.75
2022-12-19T05:08:00.603Z,101093.64
2022-12-19T05:10:28.657Z,101091.64
2022-12-19T05:12:56.721Z,101091.92
2022-12-19T05:15:24.831Z,101081.10
2022-12-19T05:17:52.742Z,101090.16
2022-12-19T05:20:20.680Z,101089.45
2022-12-19T05:22:50.359Z,101090.95
2022-12-19T05:25:19.329Z,101083.19
2022-12-19T05:27:47.221Z,101083.20
2022-12-19T05:30:15.322Z,101077.91
2022-12-19T05:32:43.393Z,101078.16
2022-12-19T05:35:11.474Z,101079.00
2022-12-19T05:37:39.313Z,101077.27
2022-12-19T05:40:08.363Z,101078.56
2022-12-19T05:42:36.472Z,101077.09
2022-12-19T05:45:06.730Z,101079.41
2022-12-19T05:47:35.014Z,101078.18
2022-12-19T05:50:04.384Z,101074.61
2022-12-19T05:52:33.230Z,101067.96
2022-12-19T05:55:01.047Z,101060.23
2022-12-19T05:57:30.123Z,101062.89
2022-12-19T05:59:58.032Z,101061.81
2022-12-19T06:02:27.125Z,101061.40
2022-12-19T06:04:56.209Z,101054.20
2022-12-19T06:07:25.600Z,101049.23
2022-12-19T06:09:53.420Z,101051.46
2022-12-19T06:12:21.262Z,101048.14
2022-12-19T06:14:50.224Z,101052.09
2022-12-19T06:17:19.388Z,101051.95
2022-12-19T06:19:47.597Z,101057.70
2022-12-19T06:22:16.330Z,101060.88
2022-12-19T06:24:44.423Z,101062.56
2022-12-19T06:27:12.520Z,101067.54
2022-12-19T06:29:40.376Z,101065.27
2022-12-19T06:32:08.800Z,101065.36
2022-12-19T06:37:25.002Z,101065.95
2022-12-19T06:39:52.860Z,101067.16
2022-12-19T06:42:23.551Z,101066.26
2022-12-19T06:44:56.219Z,101068.23
2022-12-19T06:47:25.852Z,101068.02
2022-12-19T06:49:54.861Z,101065.09
2022-12-19T06:52:23.023Z,101064.12
2022-12-19T06:54:50.909Z,101071.17
2022-12-19T06:57:18.790Z,101072.02
2022-12-19T06:59:46.919Z,101075.05
2022-12-19T07:02:30.356Z,101077.77
2022-12-19T07:05:04.998Z,101080.35
2022-12-19T07:07:32.923Z,101092.02
2022-12-19T07:10:01.750Z,101091.92
2022-12-19T07:12:30.416Z,101089.05
2022-12-19T07:14:58.485Z,101098.36
2022-12-19T07:17:29.057Z,101103.52
2022-12-19T07:19:58.980Z,101100.81
2022-12-19T07:22:32.429Z,101100.71
2022-12-19T07:25:03.175Z,101099.73
2022-12-19T07:27:35.840Z,101103.73
2022-12-19T07:30:08.058Z,101098.70
2022-12-19T07:32:36.611Z,101101.00
2022-12-19T07:35:07.436Z,101106.19
2022-12-19T07:37:35.505Z,101104.77
2022-12-19T07:40:05.656Z,101109.59
2022-12-19T07:42:35.009Z,101109.16
2022-12-19T07:45:02.876Z,101104.52
2022-12-19T07:47:30.814Z,101102.08
2022-12-19T07:49:58.875Z,101092.30
2022-12-19T07:52:29.082Z,101087.93
2022-12-19T07:54:57.141Z,101087.48
2022-12-19T07:57:25.054Z,101085.85
2022-12-19T07:59:54.059Z,101087.36
2022-12-19T08:02:22.570Z,101082.48
2022-12-19T08:04:52.631Z,101082.17
2022-12-19T08:07:21.298Z,101078.14
2022-12-19T08:09:49.285Z,101069.63
2022-12-19T08:12:17.116Z,101065.10
2022-12-19T08:14:45.221Z,101056.39
2022-12-19T08:17:21.315Z,101055.62
2022-12-19T08:19:52.606Z,101059.75
2022-12-19T08:22:21.577Z,101064.51
2022-12-19T08:24:49.911Z,101058.27
2022-12-19T08:27:18.128Z,101055.67
2022-12-19T08:29:48.516Z,101056.67
2022-12-19T08:32:21.270Z,101054.43
2022-12-19T08:34:52.038Z,101049.61
2022-12-19T08:37:19.833Z,101044.30
2022-12-19T08:39:47.735Z,101038.89
2022-12-19T08:42:15.814Z,101036.19
2022-12-19T08:44:43.889Z,101033.77
2022-12-19T08:47:12.759Z,101029.59
2022-12-19T08:49:41.704Z,101023.71
2022-12-19T08:52:10.466Z,101020.34
2022-12-19T08:54:40.340Z,101019.57
2022-12-19T08:57:12.472Z,101019.29
2022-12-19T08:59:41.366Z,101014.86
2022-12-19T09:02:12.585Z,101018.52
2022-12-19T09:06:00.543Z,101019.57
2022-12-19T09:07:30.252Z,101015.44
2022-12-19T09:10:00.378Z,101005.05
2022-12-19T09:12:28.212Z,101006.58
2022-12-19T09:14:56.093Z,101003.20
2022-12-19T09:17:24.740Z,101001.67
2022-12-19T09:19:54.677Z,100990.98
2022-12-19T09:22:27.645Z,100983.19
2022-12-19T09:24:58.518Z,100974.44
2022-12-19T09:27:26.595Z,100975.96
2022-12-19T09:29:54.643Z,100971.63
2022-12-19T09:32:22.741Z,100974.88
2022-12-19T09:34:50.609Z,100966.06
2022-12-19T09:37:19.951Z,100962.73
2022-12-19T09:39:49.453Z,100962.41
2022-12-19T09:42:28.498Z,100964.30
2022-12-19T09:45:14.632Z,100956.32
2022-12-19T09:47:49.569Z,100947.66
2022-12-19T09:50:33.024Z,100945.86
2022-12-19T09:53:27.272Z,100940.13
2022-12-19T09:56:00.659Z,100938.38
2022-12-19T09:58:45.578Z,100934.27
2022-12-19T10:01:31.580Z,100932.90
2022-12-19T10:04:06.889Z,100924.77
2022-12-19T10:07:22.062Z,100919.65
2022-12-19T10:11:42.899Z,100919.13
2022-12-19T10:12:51.103Z,100916.77
2022-12-19T10:15:59.765Z,100908.81
2022-12-19T10:18:56.770Z,100901.30
2022-12-19T10:22:18.212Z,100900.69
2022-12-19T10:25:08.960Z,100897.29
2022-12-19T10:28:01.889Z,100896.61
2022-12-19T10:30:39.025Z,100899.19
2022-12-19T10:33:20.080Z,100899.05
2022-12-19T10:36:02.312Z,100891.10
2022-12-19T10:38:58.815Z,100888.42
2022-12-19T10:41:31.083Z,100886.10
2022-12-19T10:44:11.023Z,100873.11
2022-12-19T10:46:50.308Z,100868.98
2022-12-19T10:49:22.669Z,100860.32
2022-12-19T10:51:56.863Z,100859.08
2022-12-19T10:54:49.375Z,100854.20
2022-12-19T10:57:30.330Z,100851.33
2022-12-19T11:00:04.215Z,100847.33
2022-12-19T11:02:38.960Z,100841.42
2022-12-19T11:05:26.516Z,100844.75
2022-12-19T11:08:06.601Z,100839.23
2022-12-19T11:12:39.539Z,100837.33
2022-12-19T11:19:44.214Z,100837.48
2022-12-19T11:23:30.640Z,100832.25
2022-12-19T11:29:19.827Z,100823.38
2022-12-19T11:29:31.324Z,100818.52
2022-12-19T11:30:48.369Z,100815.17
2022-12-19T11:30:48.669Z,100816.58
2022-12-19T11:34:25.119Z,100808.02
2022-12-19T11:37:01.751Z,100801.39
2022-12-19T11:39:42.376Z,100795.14
2022-12-19T11:42:47.756Z,100792.00
2022-12-19T11:45:33.124Z,100789.05
2022-12-19T11:48:16.022Z,100785.75
2022-12-19T11:51:23.230Z,100776.52
2022-12-19T11:54:25.721Z,100772.64
2022-12-19T11:56:57.729Z,100770.02
2022-12-19T11:59:38.074Z,100770.74
2022-12-19T12:02:21.363Z,100773.52
2022-12-19T12:05:07.169Z,100776.48
2022-12-19T12:08:55.977Z,100769.33
2022-12-19T12:14:34.622Z,100763.73
2022-12-19T12:21:40.388Z,100767.05
2022-12-19T12:28:08.824Z,100758.36
2022-12-19T12:31:14.804Z,100748.45
2022-12-19T12:31:20.597Z,100747.27
2022-12-19T12:31:42.777Z,100731.45
2022-12-19T12:32:04.825Z,100737.00
2022-12-19T12:35:32.950Z,100729.02
2022-12-19T12:38:37.137Z,100733.02
2022-12-19T12:41:11.357Z,100734.95
2022-12-19T12:44:08.270Z,100726.60
2022-12-19T12:46:44.788Z,100721.03
2022-12-19T12:49:24.969Z,100718.59
2022-12-19T12:51:53.973Z,100718.09
2022-12-19T12:54:32.857Z,100718.08
2022-12-19T12:57:03.492Z,100713.86
2022-12-19T12:59:32.447Z,100710.86
2022-12-19T13:02:16.247Z,100687.14
2022-12-19T13:04:59.995Z,100673.01
2022-12-19T13:07:37.357Z,100685.13
2022-12-19T13:10:25.624Z,100693.95
2022-12-19T13:13:01.189Z,100695.14
2022-12-19T13:15:38.214Z,100699.27
2022-12-19T13:18:50.029Z,100701.88
2022-12-19T13:21:18.835Z,100700.46
2022-12-19T13:23:48.710Z,100699.41
2022-12-19T13:26:23.587Z,100691.92
2022-12-19T13:28:52.251Z,100686.70
2022-12-19T13:31:23.098Z,100676.94
2022-12-19T13:33:53.593Z,100684.56
2022-12-19T13:39:48.336Z,100696.04
2022-12-19T13:40:11.257Z,100692.91
2022-12-19T13:43:19.621Z,100694.30
2022-12-19T13:46:02.976Z,100696.05
2022-12-19T13:48:41.190Z,100696.55
2022-12-19T13:51:13.622Z,100698.79
2022-12-19T13:53:44.006Z,100703.98
2022-12-19T13:56:19.745Z,100701.73
2022-12-19T13:58:47.855Z,100693.75
2022-12-19T14:01:35.754Z,100696.15
2022-12-19T14:04:07.874Z,100698.05
2022-12-19T14:06:42.997Z,100692.11
2022-12-19T14:11:32.230Z,100690.38
2022-12-19T14:13:59.285Z,100687.35
2022-12-19T14:15:39.261Z,100680.70
2022-12-19T14:18:41.842Z,100669.91
2022-12-19T14:22:11.605Z,100671.41
2022-12-19T14:24:23.341Z,100664.07
2022-12-19T14:28:25.225Z,100661.61
2022-12-19T14:30:29.952Z,100656.20
2022-12-19T14:33:45.139Z,100650.10
2022-12-19T14:36:10.777Z,100643.45
2022-12-19T14:39:22.369Z,100636.67
2022-12-19T14:41:46.948Z,100636.30
2022-12-19T14:52:11.488Z,100635.75
2022-12-19T14:53:34.117Z,100635.36
2022-12-19T14:54:16.121Z,100629.10
2022-12-19T14:54:28.918Z,100622.66
2022-12-19T14:56:47.183Z,100620.91
2022-12-19T14:59:36.099Z,100616.55
2022-12-19T15:02:07.891Z,100611.14
2022-12-19T15:04:48.139Z,100612.50
2022-12-19T15:07:27.398Z,100608.83
2022-12-19T15:11:12.055Z,100608.80
2022-12-19T15:14:55.133Z,100611.02
2022-12-19T15:16:36.184Z,100616.39
2022-12-19T15:19:13.456Z,100617.61
2022-12-19T15:21:42.554Z,100614.13
2022-12-19T15:24:11.478Z,100607.48
2022-12-19T15:26:51.132Z,100606.56
2022-12-19T15:29:22.317Z,100602.00
2022-12-19T15:31:50.482Z,100599.69
2022-12-19T15:34:38.340Z,100596.34
2022-12-19T15:37:13.468Z,100592.64
2022-12-19T15:39:44.474Z,100589.81
2022-12-19T15:42:18.284Z,100590.29
2022-12-19T15:44:48.400Z,100587.31
2022-12-19T15:47:35.035Z,100581.38
2022-12-19T15:50:18.181Z,100570.59
2022-12-19T15:52:47.240Z,100564.31
2022-12-19T15:55:18.323Z,100559.94
2022-12-19T15:57:56.278Z,100554.38
2022-12-19T16:00:29.677Z,100553.15
2022-12-19T16:03:22.920Z,100549.15
2022-12-19T16:05:48.332Z,100547.23
2022-12-19T16:08:21.514Z,100548.27
2022-12-19T16:11:01.407Z,100542.70
2022-12-19T16:13:35.579Z,100549.13
2022-12-19T16:16:11.087Z,100547.06
2022-12-19T16:18:46.200Z,100547.10
2022-12-19T16:21:33.313Z,100544.52
2022-12-19T16:24:02.772Z,100531.17
2022-12-19T16:26:37.796Z,100533.08
2022-12-19T16:29:18.090Z,100531.52
2022-12-19T16:31:46.610Z,100525.61
2022-12-19T16:34:21.596Z,100527.38
2022-12-19T16:36:51.387Z,100515.08
2022-12-19T16:39:19.909Z,100508.17
2022-12-19T16:41:51.862Z,100501.44
2022-12-19T16:44:23.803Z,100498.33
2022-12-19T16:46:53.799Z,100491.25
2022-12-19T16:49:24.757Z,100488.33
2022-12-19T16:51:52.819Z,100482.64
2022-12-19T16:54:20.939Z,100479.55
2022-12-19T16:56:54.901Z,100475.58
2022-12-19T16:59:27.011Z,100471.27
2022-12-19T17:01:58.316Z,100461.23
2022-12-19T17:04:29.100Z,100462.11
2022-12-19T17:06:57.197Z,100463.16
2022-12-19T17:09:26.507Z,100459.87
2022-12-19T17:11:59.554Z,100454.16
2022-12-19T17:14:32.161Z,100448.45
2022-12-19T17:17:01.975Z,100450.18
2022-12-19T17:19:38.427Z,100449.85
2022-12-19T17:22:17.335Z,100446.56
2022-12-19T17:24:47.749Z,100445.19
2022-12-19T17:27:19.270Z,100438.11
2022-12-19T17:29:47.278Z,100441.43
2022-12-19T17:32:23.968Z,100447.00
2022-12-19T17:34:53.956Z,100445.81
2022-12-19T17:37:24.499Z,100442.20
2022-12-19T17:39:52.616Z,100432.34
2022-12-19T17:42:25.696Z,100425.77
2022-12-19T17:44:55.134Z,100421.80
2022-12-19T17:47:25.095Z,100424.59
2022-12-19T17:49:52.942Z,100424.97
2022-12-19T17:52:20.945Z,100428.48
2022-12-19T17:54:49.322Z,100425.55
2022-12-19T17:57:19.490Z,100420.02
2022-12-19T17:59:47.392Z,100409.80
2022-12-19T18:02:26.503Z,100405.31
2022-12-19T18:04:58.509Z,100406.20
2022-12-19T18:07:26.475Z,100411.77
2022-12-19T18:09:57.533Z,100412.66
2022-12-19T18:12:27.967Z,100417.20
2022-12-19T18:14:57.174Z,100415.14
2022-12-19T18:17:27.008Z,100405.63
2022-12-19T18:19:55.179Z,100398.18
2022-12-19T18:22:23.360Z,100387.60
2022-12-19T18:24:52.867Z,100376.50
2022-12-19T18:27:21.007Z,100360.17
2022-12-19T18:29:49.676Z,100349.42
2022-12-19T18:32:22.156Z,100338.15
2022-12-19T18:34:51.562Z,100339.71
2022-12-19T18:37:19.491Z,100326.01
2022-12-19T18:39:47.350Z,100330.52
2022-12-19T18:42:21.837Z,100326.20
2022-12-19T18:44:49.868Z,100335.92
2022-12-19T18:47:23.306Z,100327.92
2022-12-19T18:49:53.287Z,100332.10
2022-12-19T18:52:21.195Z,100333.32
2022-12-19T18:54:53.422Z,100326.38
2022-12-19T18:57:21.381Z,100335.42
2022-12-19T18:59:51.714Z,100319.61
2022-12-19T19:02:28.876Z,100322.39
2022-12-19T19:05:00.151Z,100320.84
2022-12-19T19:07:29.849Z,100322.23
2022-12-19T19:09:57.855Z,100319.80
2022-12-19T19:12:26.016Z,100318.41
2022-12-19T19:14:55.714Z,100327.45
2022-12-19T19:17:28.766Z,100325.36
2022-12-19T19:19:56.778Z,100325.89
2022-12-19T19:22:27.005Z,100329.88
2022-12-19T19:24:55.157Z,100329.70
2022-12-19T19:27:23.035Z,100327.09
2022-12-19T19:29:53.711Z,100322.23
2022-12-19T19:32:23.163Z,100324.13
2022-12-19T19:34:53.010Z,100329.71
2022-12-19T19:37:22.681Z,100327.96
2022-12-19T19:39:51.481Z,100332.14
2022-12-19T19:42:20.132Z,100336.66
2022-12-19T19:44:48.192Z,100346.73
2022-12-19T19:47:16.351Z,100339.44
2022-12-19T19:49:46.311Z,100334.58
2022-12-19T19:52:17.001Z,100336.82
2022-12-19T19:54:46.960Z,100331.95
2022-12-19T19:57:17.279Z,100326.73
2022-12-19T19:59:46.786Z,100330.91
2022-12-19T20:02:16.883Z,100336.30
2022-12-19T20:04:46.762Z,100331.95
2022-12-19T20:07:17.376Z,100319.42
2022-12-19T20:09:47.773Z,100328.30
2022-12-19T20:12:15.853Z,100327.77
2022-12-19T20:14:43.936Z,100318.53
2022-12-19T20:17:12.213Z,100320.45
2022-12-19T20:19:40.335Z,100311.58
2022-12-19T20:22:12.822Z,100304.27
2022-12-19T20:24:42.244Z,100300.09
2022-12-19T20:27:11.878Z,100294.52
2022-12-19T20:29:41.460Z,100288.24
2022-12-19T20:32:11.631Z,100284.60
2022-12-19T20:34:39.606Z,100277.27
2022-12-19T20:37:07.676Z,100280.56
2022-12-19T20:39:37.371Z,100278.98
2022-12-19T20:42:08.066Z,100281.58
2022-12-19T20:44:36.151Z,100282.98
2022-12-19T20:47:05.598Z,100275.14
2022-12-19T20:49:36.390Z,100269.91
2022-12-19T20:52:04.525Z,100268.86
2022-12-19T20:54:32.587Z,100259.81
2022-12-19T20:57:02.159Z,100258.56
2022-12-19T20:59:31.867Z,100265.69
2022-12-19T21:02:02.246Z,100259.92
2022-12-19T21:04:32.195Z,100259.39
2022-12-19T21:07:00.678Z,100263.05
2022-12-19T21:09:28.752Z,100259.02
2022-12-19T21:11:56.799Z,100252.38
2022-12-19T21:14:24.961Z,100254.96
2022-12-19T21:16:53.597Z,100259.14
2022-12-19T21:19:21.502Z,100260.52
2022-12-19T21:21:49.599Z,100256.48
2022-12-19T21:24:19.085Z,100257.85
2022-12-19T21:26:58.046Z,100254.52
2022-12-19T21:29:29.359Z,100256.24
2022-12-19T21:31:57.918Z,100251.68
2022-12-19T21:34:27.544Z,100243.81
2022-12-19T21:36:55.741Z,100237.87
2022-12-19T21:39:27.066Z,100229.49
2022-12-19T21:41:54.892Z,100226.35
2022-12-19T21:44:22.956Z,100218.11
2022-12-19T21:46:50.947Z,100205.36
2022-12-19T21:49:22.735Z,100211.80
2022-12-19T21:51:50.633Z,100208.14
2022-12-19T21:54:18.716Z,100213.33
2022-12-19T21:56:46.826Z,100215.02
2022-12-19T21:59:18.086Z,100214.15
2022-12-19T22:01:46.315Z,100208.73
2022-12-19T22:04:22.233Z,100204.73
2022-12-19T22:06:52.869Z,100192.86
2022-12-19T22:09:23.477Z,100192.33
2022-12-19T22:11:53.237Z,100190.59
2022-12-19T22:14:21.356Z,100190.08
2022-12-19T22:16:49.638Z,100191.48
2022-12-19T22:19:20.937Z,100191.12
2022-12-19T22:21:48.820Z,100189.55
2022-12-19T22:24:20.466Z,100185.37
2022-12-19T22:26:50.212Z,100183.61
2022-12-19T22:29:20.091Z,100175.42
2022-12-19T22:31:48.126Z,100172.81
2022-12-19T22:34:21.616Z,100174.04
2022-12-19T22:36:49.761Z,100170.73
2022-12-19T22:39:20.679Z,100168.80
2022-12-19T22:41:51.949Z,100165.11
2022-12-19T22:44:23.668Z,100166.30
2022-12-19T22:46:53.416Z,100156.70
2022-12-19T22:49:21.570Z,100148.28
2022-12-19T22:51:51.603Z,100143.90
2022-12-19T22:54:19.789Z,100137.78
2022-12-19T22:56:53.709Z,100134.79
2022-12-19T22:59:22.166Z,100133.56
2022-12-19T23:01:50.413Z,100135.30
2022-12-19T23:04:21.240Z,100132.33
2022-12-19T23:06:49.489Z,100129.36
2022-12-19T23:09:19.754Z,100123.41
2022-12-19T23:11:50.670Z,100116.77
2022-12-19T23:14:21.137Z,100119.55
2022-12-19T23:16:50.669Z,100110.48
2022-12-19T23:19:20.196Z,100099.69
2022-12-19T23:21:48.475Z,100101.95
2022-12-19T23:24:16.588Z,100097.42
2022-12-19T23:26:46.410Z,100096.52
2022-12-19T23:29:16.466Z,100090.42
2022-12-19T23:31:46.422Z,100086.22
2022-12-19T23:34:18.141Z,100086.55
2022-12-19T23:39:37.174Z,100085.11
2022-12-19T23:42:05.274Z,100084.40
2022-12-19T23:44:34.085Z,100080.89
2022-12-19T23:47:03.869Z,100077.56
2022-12-19T23:49:34.379Z,100069.71
2022-12-19T23:52:02.295Z,100077.20
2022-12-19T23:54:30.448Z,100083.44
2022-12-19T23:56:58.664Z,100091.45
2022-12-19T23:59:26.789Z,100086.73
